sensor_id;sensor_type;location;lat;lon;timestamp;P1;durP1;ratioP1;P2;durP2;ratioP2
22240;SDS011;11289;52.524;13.694;2023-07-13T00:00:12;4.97;;;2.67;;
22240;SDS011;11289;52.524;13.694;2023-07-13T00:02:41;4.10;;;2.70;;
22240;SDS011;11289;52.524;13.694;2023-07-13T00:05:08;3.42;;;2.20;;
22240;SDS011;11289;52.524;13.694;2023-07-13T00:07:34;4.38;;;2.72;;
22240;SDS011;11289;52.524;13.694;2023-07-13T00:10:01;11.07;;;3.05;;
22240;SDS011;11289;52.524;13.694;2023-07-13T00:12:32;9.20;;;4.10;;
22240;SDS011;11289;52.524;13.694;2023-07-13T00:15:03;6.93;;;3.50;;
22240;SDS011;11289;52.524;13.694;2023-07-13T00:17:35;7.15;;;3.50;;
22240;SDS011;11289;52.524;13.694;2023-07-13T00:20:04;6.75;;;3.25;;
22240;SDS011;11289;52.524;13.694;2023-07-13T00:22:31;4.22;;;3.30;;
22240;SDS011;11289;52.524;13.694;2023-07-13T00:24:57;3.10;;;2.80;;
22240;SDS011;11289;52.524;13.694;2023-07-13T00:27:23;4.22;;;2.92;;
22240;SDS011;11289;52.524;13.694;2023-07-13T00:29:51;3.38;;;2.50;;
22240;SDS011;11289;52.524;13.694;2023-07-13T00:32:18;3.67;;;2.40;;
22240;SDS011;11289;52.524;13.694;2023-07-13T00:34:44;3.55;;;2.65;;
22240;SDS011;11289;52.524;13.694;2023-07-13T00:37:10;11.07;;;3.55;;
22240;SDS011;11289;52.524;13.694;2023-07-13T00:39:36;3.92;;;2.42;;
22240;SDS011;11289;52.524;13.694;2023-07-13T00:42:03;4.32;;;2.60;;
22240;SDS011;11289;52.524;13.694;2023-07-13T00:44:29;5.68;;;2.53;;
22240;SDS011;11289;52.524;13.694;2023-07-13T00:46:56;4.53;;;2.20;;
22240;SDS011;11289;52.524;13.694;2023-07-13T00:49:24;4.15;;;2.75;;
22240;SDS011;11289;52.524;13.694;2023-07-13T00:52:06;3.95;;;2.30;;
22240;SDS011;11289;52.524;13.694;2023-07-13T00:54:39;4.25;;;3.03;;
22240;SDS011;11289;52.524;13.694;2023-07-13T00:57:09;4.85;;;2.58;;
22240;SDS011;11289;52.524;13.694;2023-07-13T00:59:40;5.20;;;2.47;;
22240;SDS011;11289;52.524;13.694;2023-07-13T01:02:08;7.68;;;2.88;;
22240;SDS011;11289;52.524;13.694;2023-07-13T01:04:36;4.32;;;2.35;;
22240;SDS011;11289;52.524;13.694;2023-07-13T01:07:02;4.07;;;2.55;;
22240;SDS011;11289;52.524;13.694;2023-07-13T01:09:28;5.80;;;2.60;;
22240;SDS011;11289;52.524;13.694;2023-07-13T01:11:54;4.82;;;2.72;;
22240;SDS011;11289;52.524;13.694;2023-07-13T01:14:20;4.72;;;2.97;;
22240;SDS011;11289;52.524;13.694;2023-07-13T01:16:46;4.97;;;2.60;;
22240;SDS011;11289;52.524;13.694;2023-07-13T01:19:21;3.67;;;2.80;;
22240;SDS011;11289;52.524;13.694;2023-07-13T01:21:52;7.25;;;3.05;;
22240;SDS011;11289;52.524;13.694;2023-07-13T01:24:18;6.45;;;3.42;;
22240;SDS011;11289;52.524;13.694;2023-07-13T01:26:45;4.97;;;2.47;;
22240;SDS011;11289;52.524;13.694;2023-07-13T01:29:11;7.70;;;2.58;;
22240;SDS011;11289;52.524;13.694;2023-07-13T01:31:37;4.20;;;2.70;;
22240;SDS011;11289;52.524;13.694;2023-07-13T01:34:03;5.97;;;2.17;;
22240;SDS011;11289;52.524;13.694;2023-07-13T01:36:29;5.60;;;2.70;;
22240;SDS011;11289;52.524;13.694;2023-07-13T01:38:55;6.05;;;3.10;;
22240;SDS011;11289;52.524;13.694;2023-07-13T01:41:20;4.40;;;2.47;;
22240;SDS011;11289;52.524;13.694;2023-07-13T01:43:47;6.30;;;2.92;;
22240;SDS011;11289;52.524;13.694;2023-07-13T01:46:12;5.07;;;2.70;;
22240;SDS011;11289;52.524;13.694;2023-07-13T01:48:38;2.72;;;2.22;;
22240;SDS011;11289;52.524;13.694;2023-07-13T01:51:04;3.42;;;2.70;;
22240;SDS011;11289;52.524;13.694;2023-07-13T01:53:30;7.05;;;2.80;;
22240;SDS011;11289;52.524;13.694;2023-07-13T01:55:56;3.45;;;3.00;;
22240;SDS011;11289;52.524;13.694;2023-07-13T01:58:22;3.85;;;2.42;;
22240;SDS011;11289;52.524;13.694;2023-07-13T02:00:49;3.55;;;2.65;;
22240;SDS011;11289;52.524;13.694;2023-07-13T02:03:16;5.15;;;3.00;;
22240;SDS011;11289;52.524;13.694;2023-07-13T02:05:44;4.72;;;2.65;;
22240;SDS011;11289;52.524;13.694;2023-07-13T02:08:10;6.28;;;3.17;;
22240;SDS011;11289;52.524;13.694;2023-07-13T02:10:36;5.57;;;2.75;;
22240;SDS011;11289;52.524;13.694;2023-07-13T02:13:06;6.10;;;2.80;;
22240;SDS011;11289;52.524;13.694;2023-07-13T02:15:32;3.90;;;2.60;;
22240;SDS011;11289;52.524;13.694;2023-07-13T02:17:58;5.32;;;2.60;;
22240;SDS011;11289;52.524;13.694;2023-07-13T02:20:25;7.43;;;2.42;;
22240;SDS011;11289;52.524;13.694;2023-07-13T02:22:52;6.45;;;3.00;;
22240;SDS011;11289;52.524;13.694;2023-07-13T02:25:18;3.15;;;2.75;;
22240;SDS011;11289;52.524;13.694;2023-07-13T02:27:44;3.40;;;2.90;;
22240;SDS011;11289;52.524;13.694;2023-07-13T02:30:10;5.75;;;2.92;;
22240;SDS011;11289;52.524;13.694;2023-07-13T02:32:36;6.47;;;3.35;;
22240;SDS011;11289;52.524;13.694;2023-07-13T02:35:02;4.40;;;3.13;;
22240;SDS011;11289;52.524;13.694;2023-07-13T02:37:29;4.10;;;2.88;;
22240;SDS011;11289;52.524;13.694;2023-07-13T02:39:55;4.45;;;2.55;;
22240;SDS011;11289;52.524;13.694;2023-07-13T02:42:21;5.50;;;2.65;;
22240;SDS011;11289;52.524;13.694;2023-07-13T02:44:48;5.03;;;2.80;;
22240;SDS011;11289;52.524;13.694;2023-07-13T02:47:16;4.68;;;2.88;;
22240;SDS011;11289;52.524;13.694;2023-07-13T02:49:42;3.63;;;2.50;;
22240;SDS011;11289;52.524;13.694;2023-07-13T02:52:09;5.13;;;2.90;;
22240;SDS011;11289;52.524;13.694;2023-07-13T02:54:35;4.10;;;2.80;;
22240;SDS011;11289;52.524;13.694;2023-07-13T02:57:01;3.55;;;2.50;;
22240;SDS011;11289;52.524;13.694;2023-07-13T02:59:27;4.68;;;2.80;;
22240;SDS011;11289;52.524;13.694;2023-07-13T03:01:58;5.22;;;3.53;;
22240;SDS011;11289;52.524;13.694;2023-07-13T03:04:23;5.30;;;2.78;;
22240;SDS011;11289;52.524;13.694;2023-07-13T03:06:50;5.65;;;3.03;;
22240;SDS011;11289;52.524;13.694;2023-07-13T03:09:16;6.75;;;3.05;;
22240;SDS011;11289;52.524;13.694;2023-07-13T03:11:43;4.22;;;2.70;;
22240;SDS011;11289;52.524;13.694;2023-07-13T03:14:09;5.40;;;2.97;;
22240;SDS011;11289;52.524;13.694;2023-07-13T03:16:35;4.22;;;3.17;;
22240;SDS011;11289;52.524;13.694;2023-07-13T03:19:03;7.30;;;3.03;;
22240;SDS011;11289;52.524;13.694;2023-07-13T03:21:29;4.13;;;2.80;;
22240;SDS011;11289;52.524;13.694;2023-07-13T03:23:56;3.35;;;2.55;;
22240;SDS011;11289;52.524;13.694;2023-07-13T03:26:22;4.55;;;3.15;;
22240;SDS011;11289;52.524;13.694;2023-07-13T03:28:48;4.82;;;3.00;;
22240;SDS011;11289;52.524;13.694;2023-07-13T03:31:19;3.30;;;2.83;;
22240;SDS011;11289;52.524;13.694;2023-07-13T03:33:47;3.17;;;2.85;;
22240;SDS011;11289;52.524;13.694;2023-07-13T03:36:17;4.70;;;2.97;;
22240;SDS011;11289;52.524;13.694;2023-07-13T03:38:46;3.53;;;2.93;;
22240;SDS011;11289;52.524;13.694;2023-07-13T03:41:14;4.38;;;3.03;;
22240;SDS011;11289;52.524;13.694;2023-07-13T03:43:41;6.38;;;2.95;;
22240;SDS011;11289;52.524;13.694;2023-07-13T03:46:07;4.45;;;3.10;;
22240;SDS011;11289;52.524;13.694;2023-07-13T03:48:33;6.60;;;2.85;;
22240;SDS011;11289;52.524;13.694;2023-07-13T03:50:59;5.45;;;3.13;;
22240;SDS011;11289;52.524;13.694;2023-07-13T03:53:25;3.45;;;2.92;;
22240;SDS011;11289;52.524;13.694;2023-07-13T03:55:51;4.55;;;3.13;;
22240;SDS011;11289;52.524;13.694;2023-07-13T04:00:52;4.68;;;3.00;;
22240;SDS011;11289;52.524;13.694;2023-07-13T04:03:18;5.82;;;3.38;;
22240;SDS011;11289;52.524;13.694;2023-07-13T04:05:45;4.95;;;3.38;;
22240;SDS011;11289;52.524;13.694;2023-07-13T04:08:11;5.60;;;3.28;;
22240;SDS011;11289;52.524;13.694;2023-07-13T04:10:38;3.45;;;3.15;;
22240;SDS011;11289;52.524;13.694;2023-07-13T04:13:04;4.57;;;2.70;;
22240;SDS011;11289;52.524;13.694;2023-07-13T04:15:31;6.78;;;3.65;;
22240;SDS011;11289;52.524;13.694;2023-07-13T04:17:58;6.40;;;3.42;;
22240;SDS011;11289;52.524;13.694;2023-07-13T04:20:25;4.78;;;3.33;;
22240;SDS011;11289;52.524;13.694;2023-07-13T04:22:51;7.13;;;3.63;;
22240;SDS011;11289;52.524;13.694;2023-07-13T04:25:19;6.45;;;3.40;;
22240;SDS011;11289;52.524;13.694;2023-07-13T04:27:45;9.82;;;3.88;;
22240;SDS011;11289;52.524;13.694;2023-07-13T04:30:12;5.78;;;3.60;;
22240;SDS011;11289;52.524;13.694;2023-07-13T04:32:38;5.68;;;4.30;;
22240;SDS011;11289;52.524;13.694;2023-07-13T04:35:04;6.40;;;3.65;;
22240;SDS011;11289;52.524;13.694;2023-07-13T04:37:30;5.40;;;3.45;;
22240;SDS011;11289;52.524;13.694;2023-07-13T04:39:56;5.07;;;3.97;;
22240;SDS011;11289;52.524;13.694;2023-07-13T04:42:22;5.32;;;4.30;;
22240;SDS011;11289;52.524;13.694;2023-07-13T04:44:49;7.45;;;4.60;;
22240;SDS011;11289;52.524;13.694;2023-07-13T04:47:15;6.97;;;3.85;;
22240;SDS011;11289;52.524;13.694;2023-07-13T04:49:41;7.35;;;3.75;;
22240;SDS011;11289;52.524;13.694;2023-07-13T04:52:07;7.53;;;4.28;;
22240;SDS011;11289;52.524;13.694;2023-07-13T04:54:34;8.43;;;4.68;;
22240;SDS011;11289;52.524;13.694;2023-07-13T04:57:00;6.28;;;4.18;;
22240;SDS011;11289;52.524;13.694;2023-07-13T04:59:26;4.72;;;4.10;;
22240;SDS011;11289;52.524;13.694;2023-07-13T05:01:52;7.05;;;4.05;;
22240;SDS011;11289;52.524;13.694;2023-07-13T05:04:18;8.88;;;3.63;;
22240;SDS011;11289;52.524;13.694;2023-07-13T05:06:45;6.15;;;3.83;;
22240;SDS011;11289;52.524;13.694;2023-07-13T05:09:10;5.10;;;3.58;;
22240;SDS011;11289;52.524;13.694;2023-07-13T05:11:38;7.72;;;4.53;;
22240;SDS011;11289;52.524;13.694;2023-07-13T05:14:04;6.88;;;3.92;;
22240;SDS011;11289;52.524;13.694;2023-07-13T05:16:30;11.77;;;4.55;;
22240;SDS011;11289;52.524;13.694;2023-07-13T05:18:57;6.25;;;3.83;;
22240;SDS011;11289;52.524;13.694;2023-07-13T05:21:24;7.55;;;3.90;;
22240;SDS011;11289;52.524;13.694;2023-07-13T05:23:50;6.38;;;3.67;;
22240;SDS011;11289;52.524;13.694;2023-07-13T05:26:16;5.85;;;3.67;;
22240;SDS011;11289;52.524;13.694;2023-07-13T05:28:42;5.45;;;3.00;;
22240;SDS011;11289;52.524;13.694;2023-07-13T05:31:09;5.88;;;3.40;;
22240;SDS011;11289;52.524;13.694;2023-07-13T05:33:35;5.28;;;3.30;;
22240;SDS011;11289;52.524;13.694;2023-07-13T05:36:01;7.32;;;3.88;;
22240;SDS011;11289;52.524;13.694;2023-07-13T05:38:27;6.88;;;3.65;;
22240;SDS011;11289;52.524;13.694;2023-07-13T05:40:54;6.97;;;3.20;;
22240;SDS011;11289;52.524;13.694;2023-07-13T05:43:22;5.00;;;3.33;;
22240;SDS011;11289;52.524;13.694;2023-07-13T05:45:48;6.85;;;3.25;;
22240;SDS011;11289;52.524;13.694;2023-07-13T05:48:15;4.13;;;3.28;;
22240;SDS011;11289;52.524;13.694;2023-07-13T05:50:41;5.32;;;2.67;;
22240;SDS011;11289;52.524;13.694;2023-07-13T05:53:07;6.22;;;3.10;;
22240;SDS011;11289;52.524;13.694;2023-07-13T05:55:33;6.72;;;3.45;;
22240;SDS011;11289;52.524;13.694;2023-07-13T05:58:00;8.80;;;3.22;;
22240;SDS011;11289;52.524;13.694;2023-07-13T06:00:26;4.80;;;3.28;;
22240;SDS011;11289;52.524;13.694;2023-07-13T06:02:52;5.18;;;2.60;;
22240;SDS011;11289;52.524;13.694;2023-07-13T06:05:18;5.88;;;3.20;;
22240;SDS011;11289;52.524;13.694;2023-07-13T06:07:45;9.43;;;3.00;;
22240;SDS011;11289;52.524;13.694;2023-07-13T06:10:11;7.72;;;3.17;;
22240;SDS011;11289;52.524;13.694;2023-07-13T06:12:36;8.45;;;2.88;;
22240;SDS011;11289;52.524;13.694;2023-07-13T06:15:03;5.68;;;2.95;;
22240;SDS011;11289;52.524;13.694;2023-07-13T06:17:29;4.50;;;2.17;;
22240;SDS011;11289;52.524;13.694;2023-07-13T06:19:55;6.30;;;2.25;;
22240;SDS011;11289;52.524;13.694;2023-07-13T06:22:21;3.90;;;1.77;;
22240;SDS011;11289;52.524;13.694;2023-07-13T06:24:47;4.65;;;1.90;;
22240;SDS011;11289;52.524;13.694;2023-07-13T06:27:13;5.07;;;2.30;;
22240;SDS011;11289;52.524;13.694;2023-07-13T06:29:39;6.15;;;2.00;;
22240;SDS011;11289;52.524;13.694;2023-07-13T06:32:06;3.90;;;1.77;;
22240;SDS011;11289;52.524;13.694;2023-07-13T06:34:32;4.35;;;1.63;;
22240;SDS011;11289;52.524;13.694;2023-07-13T06:36:58;4.60;;;1.73;;
22240;SDS011;11289;52.524;13.694;2023-07-13T06:39:24;6.50;;;1.45;;
22240;SDS011;11289;52.524;13.694;2023-07-13T06:41:50;4.28;;;1.80;;
22240;SDS011;11289;52.524;13.694;2023-07-13T06:44:16;4.57;;;1.70;;
22240;SDS011;11289;52.524;13.694;2023-07-13T06:46:42;5.43;;;1.80;;
22240;SDS011;11289;52.524;13.694;2023-07-13T06:49:08;2.75;;;1.55;;
22240;SDS011;11289;52.524;13.694;2023-07-13T06:51:34;4.78;;;1.65;;
22240;SDS011;11289;52.524;13.694;2023-07-13T06:54:00;2.05;;;1.45;;
22240;SDS011;11289;52.524;13.694;2023-07-13T06:56:26;6.13;;;1.55;;
22240;SDS011;11289;52.524;13.694;2023-07-13T06:58:52;5.05;;;1.70;;
22240;SDS011;11289;52.524;13.694;2023-07-13T07:01:18;3.33;;;1.40;;
22240;SDS011;11289;52.524;13.694;2023-07-13T07:03:44;5.40;;;2.13;;
22240;SDS011;11289;52.524;13.694;2023-07-13T07:08:42;2.95;;;1.50;;
22240;SDS011;11289;52.524;13.694;2023-07-13T07:11:11;4.07;;;1.42;;
22240;SDS011;11289;52.524;13.694;2023-07-13T07:13:39;4.68;;;1.55;;
22240;SDS011;11289;52.524;13.694;2023-07-13T07:16:05;2.30;;;1.52;;
22240;SDS011;11289;52.524;13.694;2023-07-13T07:18:32;3.50;;;1.75;;
22240;SDS011;11289;52.524;13.694;2023-07-13T07:20:58;3.60;;;1.67;;
22240;SDS011;11289;52.524;13.694;2023-07-13T07:23:24;4.30;;;1.48;;
22240;SDS011;11289;52.524;13.694;2023-07-13T07:25:50;4.72;;;1.42;;
22240;SDS011;11289;52.524;13.694;2023-07-13T07:28:17;4.55;;;1.38;;
22240;SDS011;11289;52.524;13.694;2023-07-13T07:30:44;3.55;;;1.70;;
22240;SDS011;11289;52.524;13.694;2023-07-13T07:33:10;3.33;;;1.35;;
22240;SDS011;11289;52.524;13.694;2023-07-13T07:35:37;1.63;;;0.75;;
22240;SDS011;11289;52.524;13.694;2023-07-13T07:38:03;2.65;;;1.10;;
22240;SDS011;11289;52.524;13.694;2023-07-13T07:40:29;4.45;;;1.42;;
22240;SDS011;11289;52.524;13.694;2023-07-13T07:42:55;4.10;;;1.30;;
22240;SDS011;11289;52.524;13.694;2023-07-13T07:45:21;1.27;;;1.00;;
22240;SDS011;11289;52.524;13.694;2023-07-13T07:47:47;4.32;;;1.20;;
22240;SDS011;11289;52.524;13.694;2023-07-13T07:50:13;5.43;;;1.20;;
22240;SDS011;11289;52.524;13.694;2023-07-13T07:52:39;3.65;;;1.20;;
22240;SDS011;11289;52.524;13.694;2023-07-13T07:55:06;4.63;;;1.42;;
22240;SDS011;11289;52.524;13.694;2023-07-13T07:57:33;3.20;;;1.25;;
22240;SDS011;11289;52.524;13.694;2023-07-13T07:59:59;2.88;;;0.98;;
22240;SDS011;11289;52.524;13.694;2023-07-13T08:02:25;2.58;;;1.23;;
22240;SDS011;11289;52.524;13.694;2023-07-13T08:04:51;2.15;;;0.98;;
22240;SDS011;11289;52.524;13.694;2023-07-13T08:07:18;2.80;;;1.00;;
22240;SDS011;11289;52.524;13.694;2023-07-13T08:09:44;2.97;;;1.20;;
22240;SDS011;11289;52.524;13.694;2023-07-13T08:12:10;3.13;;;1.00;;
22240;SDS011;11289;52.524;13.694;2023-07-13T08:14:36;3.03;;;1.10;;
22240;SDS011;11289;52.524;13.694;2023-07-13T08:17:03;3.33;;;0.93;;
22240;SDS011;11289;52.524;13.694;2023-07-13T08:19:30;3.80;;;1.10;;
22240;SDS011;11289;52.524;13.694;2023-07-13T08:21:56;5.03;;;1.30;;
22240;SDS011;11289;52.524;13.694;2023-07-13T08:24:23;5.50;;;1.52;;
22240;SDS011;11289;52.524;13.694;2023-07-13T08:26:50;4.07;;;1.08;;
22240;SDS011;11289;52.524;13.694;2023-07-13T08:29:16;2.92;;;1.10;;
22240;SDS011;11289;52.524;13.694;2023-07-13T08:31:42;5.53;;;1.00;;
22240;SDS011;11289;52.524;13.694;2023-07-13T08:34:08;4.25;;;1.00;;
22240;SDS011;11289;52.524;13.694;2023-07-13T08:36:34;3.80;;;0.95;;
22240;SDS011;11289;52.524;13.694;2023-07-13T08:39:00;4.38;;;0.98;;
22240;SDS011;11289;52.524;13.694;2023-07-13T08:41:26;2.97;;;1.00;;
22240;SDS011;11289;52.524;13.694;2023-07-13T08:43:56;4.82;;;1.08;;
22240;SDS011;11289;52.524;13.694;2023-07-13T08:46:25;3.35;;;0.90;;
22240;SDS011;11289;52.524;13.694;2023-07-13T08:49:21;3.25;;;1.38;;
22240;SDS011;11289;52.524;13.694;2023-07-13T08:54:46;3.40;;;1.00;;
22240;SDS011;11289;52.524;13.694;2023-07-13T08:57:18;3.00;;;1.10;;
22240;SDS011;11289;52.524;13.694;2023-07-13T08:59:46;5.45;;;1.20;;
22240;SDS011;11289;52.524;13.694;2023-07-13T09:02:26;3.13;;;1.10;;
22240;SDS011;11289;52.524;13.694;2023-07-13T09:05:01;2.75;;;0.80;;
22240;SDS011;11289;52.524;13.694;2023-07-13T09:15:32;3.97;;;0.90;;
22240;SDS011;11289;52.524;13.694;2023-07-13T09:18:26;5.18;;;1.00;;
22240;SDS011;11289;52.524;13.694;2023-07-13T09:21:26;2.53;;;0.80;;
22240;SDS011;11289;52.524;13.694;2023-07-13T09:23:44;3.50;;;0.80;;
22240;SDS011;11289;52.524;13.694;2023-07-13T09:26:20;1.77;;;0.80;;
22240;SDS011;11289;52.524;13.694;2023-07-13T09:28:55;3.00;;;1.15;;
22240;SDS011;11289;52.524;13.694;2023-07-13T09:31:36;3.38;;;1.00;;
22240;SDS011;11289;52.524;13.694;2023-07-13T09:34:08;3.67;;;0.90;;
22240;SDS011;11289;52.524;13.694;2023-07-13T09:36:36;2.35;;;0.98;;
22240;SDS011;11289;52.524;13.694;2023-07-13T09:39:03;1.98;;;0.90;;
22240;SDS011;11289;52.524;13.694;2023-07-13T09:44:13;3.47;;;1.13;;
22240;SDS011;11289;52.524;13.694;2023-07-13T09:46:44;3.33;;;1.30;;
22240;SDS011;11289;52.524;13.694;2023-07-13T09:49:24;2.80;;;1.40;;
22240;SDS011;11289;52.524;13.694;2023-07-13T09:51:57;3.05;;;1.00;;
22240;SDS011;11289;52.524;13.694;2023-07-13T09:54:26;5.13;;;1.20;;
22240;SDS011;11289;52.524;13.694;2023-07-13T09:56:56;2.00;;;1.10;;
22240;SDS011;11289;52.524;13.694;2023-07-13T09:59:26;2.70;;;1.00;;
22240;SDS011;11289;52.524;13.694;2023-07-13T10:01:54;4.43;;;0.93;;
22240;SDS011;11289;52.524;13.694;2023-07-13T10:04:26;1.48;;;1.00;;
22240;SDS011;11289;52.524;13.694;2023-07-13T10:07:04;5.45;;;1.10;;
22240;SDS011;11289;52.524;13.694;2023-07-13T10:09:34;2.15;;;1.10;;
22240;SDS011;11289;52.524;13.694;2023-07-13T10:12:00;1.65;;;1.00;;
22240;SDS011;11289;52.524;13.694;2023-07-13T10:14:27;4.57;;;0.98;;
22240;SDS011;11289;52.524;13.694;2023-07-13T10:17:00;2.63;;;1.15;;
22240;SDS011;11289;52.524;13.694;2023-07-13T10:19:31;2.25;;;1.10;;
22240;SDS011;11289;52.524;13.694;2023-07-13T10:22:01;3.90;;;1.20;;
22240;SDS011;11289;52.524;13.694;2023-07-13T10:24:33;2.13;;;1.08;;
22240;SDS011;11289;52.524;13.694;2023-07-13T10:27:11;2.85;;;1.20;;
22240;SDS011;11289;52.524;13.694;2023-07-13T10:29:59;2.97;;;1.35;;
22240;SDS011;11289;52.524;13.694;2023-07-13T10:32:34;4.70;;;1.20;;
22240;SDS011;11289;52.524;13.694;2023-07-13T10:35:00;5.80;;;1.63;;
22240;SDS011;11289;52.524;13.694;2023-07-13T10:37:38;4.95;;;1.60;;
22240;SDS011;11289;52.524;13.694;2023-07-13T10:40:14;2.58;;;1.48;;
22240;SDS011;11289;52.524;13.694;2023-07-13T10:42:46;4.85;;;1.85;;
22240;SDS011;11289;52.524;13.694;2023-07-13T10:45:19;3.28;;;1.80;;
22240;SDS011;11289;52.524;13.694;2023-07-13T10:47:47;6.90;;;2.05;;
22240;SDS011;11289;52.524;13.694;2023-07-13T10:50:17;5.22;;;1.80;;
22240;SDS011;11289;52.524;13.694;2023-07-13T10:52:47;5.03;;;2.08;;
22240;SDS011;11289;52.524;13.694;2023-07-13T11:00:57;3.40;;;1.55;;
22240;SDS011;11289;52.524;13.694;2023-07-13T11:03:30;3.83;;;1.80;;
22240;SDS011;11289;52.524;13.694;2023-07-13T11:06:05;5.55;;;1.70;;
22240;SDS011;11289;52.524;13.694;2023-07-13T11:11:46;2.50;;;1.20;;
22240;SDS011;11289;52.524;13.694;2023-07-13T11:14:25;5.32;;;1.80;;
22240;SDS011;11289;52.524;13.694;2023-07-13T11:16:53;3.13;;;1.35;;
22240;SDS011;11289;52.524;13.694;2023-07-13T11:22:21;4.47;;;1.40;;
22240;SDS011;11289;52.524;13.694;2023-07-13T11:27:21;3.30;;;1.50;;
22240;SDS011;11289;52.524;13.694;2023-07-13T11:29:47;2.28;;;1.20;;
22240;SDS011;11289;52.524;13.694;2023-07-13T11:32:29;2.25;;;1.20;;
22240;SDS011;11289;52.524;13.694;2023-07-13T11:37:23;2.90;;;1.60;;
22240;SDS011;11289;52.524;13.694;2023-07-13T11:39:50;3.45;;;1.70;;
22240;SDS011;11289;52.524;13.694;2023-07-13T11:42:18;3.00;;;1.40;;
22240;SDS011;11289;52.524;13.694;2023-07-13T11:44:46;2.60;;;1.20;;
22240;SDS011;11289;52.524;13.694;2023-07-13T11:47:16;3.42;;;1.70;;
22240;SDS011;11289;52.524;13.694;2023-07-13T11:49:48;2.40;;;1.77;;
22240;SDS011;11289;52.524;13.694;2023-07-13T11:52:19;3.72;;;2.13;;
22240;SDS011;11289;52.524;13.694;2023-07-13T11:54:49;5.68;;;2.28;;
22240;SDS011;11289;52.524;13.694;2023-07-13T11:59:59;3.00;;;1.20;;
22240;SDS011;11289;52.524;13.694;2023-07-13T12:05:03;4.85;;;1.30;;
22240;SDS011;11289;52.524;13.694;2023-07-13T12:07:31;1.75;;;1.23;;
22240;SDS011;11289;52.524;13.694;2023-07-13T12:10:41;4.05;;;1.10;;
22240;SDS011;11289;52.524;13.694;2023-07-13T12:12:52;3.92;;;1.40;;
22240;SDS011;11289;52.524;13.694;2023-07-13T12:15:21;6.47;;;1.50;;
22240;SDS011;11289;52.524;13.694;2023-07-13T12:17:49;3.83;;;1.35;;
22240;SDS011;11289;52.524;13.694;2023-07-13T12:20:30;6.78;;;1.40;;
22240;SDS011;11289;52.524;13.694;2023-07-13T12:23:01;3.63;;;1.30;;
22240;SDS011;11289;52.524;13.694;2023-07-13T12:25:28;8.23;;;1.52;;
22240;SDS011;11289;52.524;13.694;2023-07-13T12:27:55;4.95;;;1.50;;
22240;SDS011;11289;52.524;13.694;2023-07-13T12:30:26;5.03;;;1.73;;
22240;SDS011;11289;52.524;13.694;2023-07-13T12:33:02;4.90;;;1.33;;
22240;SDS011;11289;52.524;13.694;2023-07-13T12:35:39;2.35;;;1.20;;
22240;SDS011;11289;52.524;13.694;2023-07-13T12:38:10;7.15;;;1.60;;
22240;SDS011;11289;52.524;13.694;2023-07-13T12:40:37;3.83;;;1.65;;
22240;SDS011;11289;52.524;13.694;2023-07-13T12:43:03;2.67;;;1.52;;
22240;SDS011;11289;52.524;13.694;2023-07-13T12:45:32;4.05;;;1.33;;
22240;SDS011;11289;52.524;13.694;2023-07-13T12:48:10;3.65;;;1.60;;
22240;SDS011;11289;52.524;13.694;2023-07-13T12:50:40;3.10;;;1.27;;
22240;SDS011;11289;52.524;13.694;2023-07-13T12:53:15;6.70;;;1.75;;
22240;SDS011;11289;52.524;13.694;2023-07-13T12:55:58;3.50;;;1.20;;
22240;SDS011;11289;52.524;13.694;2023-07-13T12:58:49;2.83;;;1.20;;
22240;SDS011;11289;52.524;13.694;2023-07-13T13:01:21;4.40;;;1.40;;
22240;SDS011;11289;52.524;13.694;2023-07-13T13:03:52;6.65;;;1.70;;
22240;SDS011;11289;52.524;13.694;2023-07-13T13:06:21;2.77;;;1.70;;
22240;SDS011;11289;52.524;13.694;2023-07-13T13:08:53;3.03;;;1.58;;
22240;SDS011;11289;52.524;13.694;2023-07-13T13:11:27;5.70;;;1.30;;
22240;SDS011;11289;52.524;13.694;2023-07-13T13:13:55;6.55;;;1.20;;
22240;SDS011;11289;52.524;13.694;2023-07-13T13:16:31;2.83;;;1.27;;
22240;SDS011;11289;52.524;13.694;2023-07-13T13:19:00;1.95;;;1.02;;
22240;SDS011;11289;52.524;13.694;2023-07-13T13:21:35;3.33;;;1.27;;
22240;SDS011;11289;52.524;13.694;2023-07-13T13:24:02;3.15;;;1.20;;
22240;SDS011;11289;52.524;13.694;2023-07-13T13:26:28;3.28;;;1.42;;
22240;SDS011;11289;52.524;13.694;2023-07-13T13:28:53;2.22;;;1.30;;
22240;SDS011;11289;52.524;13.694;2023-07-13T13:31:19;3.35;;;1.20;;
22240;SDS011;11289;52.524;13.694;2023-07-13T13:33:45;2.45;;;1.30;;
22240;SDS011;11289;52.524;13.694;2023-07-13T13:36:20;3.70;;;1.65;;
22240;SDS011;11289;52.524;13.694;2023-07-13T13:38:48;4.28;;;1.13;;
22240;SDS011;11289;52.524;13.694;2023-07-13T13:41:15;4.55;;;0.90;;
22240;SDS011;11289;52.524;13.694;2023-07-13T13:43:42;5.13;;;0.90;;
22240;SDS011;11289;52.524;13.694;2023-07-13T13:46:15;2.17;;;0.90;;
22240;SDS011;11289;52.524;13.694;2023-07-13T13:48:47;2.60;;;0.80;;
22240;SDS011;11289;52.524;13.694;2023-07-13T13:51:18;1.67;;;0.73;;
22240;SDS011;11289;52.524;13.694;2023-07-13T13:53:51;4.10;;;1.00;;
22240;SDS011;11289;52.524;13.694;2023-07-13T13:58:45;4.63;;;0.85;;
22240;SDS011;11289;52.524;13.694;2023-07-13T14:01:12;3.53;;;1.17;;
22240;SDS011;11289;52.524;13.694;2023-07-13T14:03:50;3.05;;;0.82;;
22240;SDS011;11289;52.524;13.694;2023-07-13T14:06:24;2.95;;;0.82;;
22240;SDS011;11289;52.524;13.694;2023-07-13T14:09:00;3.97;;;0.95;;
22240;SDS011;11289;52.524;13.694;2023-07-13T14:11:38;4.07;;;1.17;;
22240;SDS011;11289;52.524;13.694;2023-07-13T14:16:55;5.35;;;1.83;;
22240;SDS011;11289;52.524;13.694;2023-07-13T14:22:26;2.55;;;1.00;;
22240;SDS011;11289;52.524;13.694;2023-07-13T14:27:48;3.88;;;0.75;;
22240;SDS011;11289;52.524;13.694;2023-07-13T14:30:24;3.30;;;0.77;;
22240;SDS011;11289;52.524;13.694;2023-07-13T14:32:55;3.95;;;1.08;;
22240;SDS011;11289;52.524;13.694;2023-07-13T14:35:21;2.25;;;0.88;;
22240;SDS011;11289;52.524;13.694;2023-07-13T14:37:49;2.15;;;0.57;;
22240;SDS011;11289;52.524;13.694;2023-07-13T14:40:19;2.58;;;1.00;;
22240;SDS011;11289;52.524;13.694;2023-07-13T14:42:52;2.38;;;0.82;;
22240;SDS011;11289;52.524;13.694;2023-07-13T14:45:19;1.95;;;0.75;;
22240;SDS011;11289;52.524;13.694;2023-07-13T14:47:54;2.70;;;0.85;;
22240;SDS011;11289;52.524;13.694;2023-07-13T14:50:30;2.20;;;0.80;;
22240;SDS011;11289;52.524;13.694;2023-07-13T14:52:58;3.35;;;0.90;;
22240;SDS011;11289;52.524;13.694;2023-07-13T14:57:54;2.33;;;0.70;;
22240;SDS011;11289;52.524;13.694;2023-07-13T15:00:21;7.82;;;5.47;;
22240;SDS011;11289;52.524;13.694;2023-07-13T15:02:51;5.38;;;2.50;;
22240;SDS011;11289;52.524;13.694;2023-07-13T15:05:24;3.13;;;1.23;;
22240;SDS011;11289;52.524;13.694;2023-07-13T15:07:57;2.00;;;0.70;;
22240;SDS011;11289;52.524;13.694;2023-07-13T15:13:29;2.97;;;0.90;;
22240;SDS011;11289;52.524;13.694;2023-07-13T15:15:55;3.10;;;0.95;;
22240;SDS011;11289;52.524;13.694;2023-07-13T15:18:42;2.67;;;0.90;;
22240;SDS011;11289;52.524;13.694;2023-07-13T15:21:14;2.25;;;0.93;;
22240;SDS011;11289;52.524;13.694;2023-07-13T15:23:46;4.32;;;1.00;;
22240;SDS011;11289;52.524;13.694;2023-07-13T15:26:12;3.00;;;1.50;;
22240;SDS011;11289;52.524;13.694;2023-07-13T15:28:43;4.32;;;1.65;;
22240;SDS011;11289;52.524;13.694;2023-07-13T15:34:15;4.18;;;0.93;;
22240;SDS011;11289;52.524;13.694;2023-07-13T15:36:45;1.65;;;0.82;;
22240;SDS011;11289;52.524;13.694;2023-07-13T15:39:15;3.38;;;1.00;;
22240;SDS011;11289;52.524;13.694;2023-07-13T15:41:42;3.72;;;0.80;;